aviador You're here:

KS32 Decoded Metar

in
Report Time2017-08-23 02:15:00
UTC Time2017-08-23 02:15:41
Flight Rules vfr VFR
Wind320° at 05 kt
W.Rank320° ranks 6
Current wind is below 320° avg. (12.1)
Visibility9999 m
Phenomena:N/A
Clouds:N/A
Expected CloudBase > 2,400 ft AGL from Temp-Dew spread
CeilingNone
Temp15°C
Dew Point09°C (68% RH)
AAT13.0°C
QNH1019 hPa
Raw Report
METAR KS32 230215Z AUTO 32005KT 10SM CLR 15/09 A3010 RMK AO2=

Extra information for KS32:More info

Social comments